sensor_id;sensor_type;location;lat;lon;timestamp;P1;durP1;ratioP1;P2;durP2;ratioP2
20411;SDS011;10365;52.578;8.138;2024-02-14T00:02:05;5.32;;;3.10;;
20411;SDS011;10365;52.578;8.138;2024-02-14T00:04:31;6.18;;;2.80;;
20411;SDS011;10365;52.578;8.138;2024-02-14T00:06:56;8.75;;;3.40;;
20411;SDS011;10365;52.578;8.138;2024-02-14T00:09:22;4.95;;;2.72;;
20411;SDS011;10365;52.578;8.138;2024-02-14T00:11:47;3.95;;;2.30;;
20411;SDS011;10365;52.578;8.138;2024-02-14T00:14:13;6.22;;;3.17;;
20411;SDS011;10365;52.578;8.138;2024-02-14T00:16:38;6.95;;;3.00;;
20411;SDS011;10365;52.578;8.138;2024-02-14T00:19:04;6.68;;;2.80;;
20411;SDS011;10365;52.578;8.138;2024-02-14T00:21:29;8.95;;;3.42;;
20411;SDS011;10365;52.578;8.138;2024-02-14T00:23:54;5.10;;;2.80;;
20411;SDS011;10365;52.578;8.138;2024-02-14T00:26:20;5.50;;;2.78;;
20411;SDS011;10365;52.578;8.138;2024-02-14T00:28:46;5.25;;;3.05;;
20411;SDS011;10365;52.578;8.138;2024-02-14T00:31:11;8.23;;;3.50;;
20411;SDS011;10365;52.578;8.138;2024-02-14T00:33:36;6.57;;;3.33;;
20411;SDS011;10365;52.578;8.138;2024-02-14T00:36:02;4.82;;;3.20;;
20411;SDS011;10365;52.578;8.138;2024-02-14T00:38:27;8.57;;;3.10;;
20411;SDS011;10365;52.578;8.138;2024-02-14T00:40:53;4.43;;;2.90;;
20411;SDS011;10365;52.578;8.138;2024-02-14T00:43:19;7.82;;;3.53;;
20411;SDS011;10365;52.578;8.138;2024-02-14T00:45:44;7.80;;;4.00;;
20411;SDS011;10365;52.578;8.138;2024-02-14T00:48:10;8.50;;;3.60;;
20411;SDS011;10365;52.578;8.138;2024-02-14T00:50:36;6.80;;;3.53;;
20411;SDS011;10365;52.578;8.138;2024-02-14T00:53:02;8.00;;;3.65;;
20411;SDS011;10365;52.578;8.138;2024-02-14T00:55:28;8.68;;;3.58;;
20411;SDS011;10365;52.578;8.138;2024-02-14T00:57:53;6.00;;;3.45;;
20411;SDS011;10365;52.578;8.138;2024-02-14T01:00:19;7.72;;;3.60;;
20411;SDS011;10365;52.578;8.138;2024-02-14T01:02:44;6.65;;;3.78;;
20411;SDS011;10365;52.578;8.138;2024-02-14T01:05:10;11.65;;;4.25;;
20411;SDS011;10365;52.578;8.138;2024-02-14T01:07:35;6.30;;;3.55;;
20411;SDS011;10365;52.578;8.138;2024-02-14T01:10:02;11.45;;;4.45;;
20411;SDS011;10365;52.578;8.138;2024-02-14T01:12:28;6.13;;;4.00;;
20411;SDS011;10365;52.578;8.138;2024-02-14T01:14:54;8.80;;;4.35;;
20411;SDS011;10365;52.578;8.138;2024-02-14T01:17:20;8.35;;;4.38;;
20411;SDS011;10365;52.578;8.138;2024-02-14T01:19:45;7.30;;;4.00;;
20411;SDS011;10365;52.578;8.138;2024-02-14T01:22:11;9.63;;;4.05;;
20411;SDS011;10365;52.578;8.138;2024-02-14T01:24:36;8.35;;;5.00;;
20411;SDS011;10365;52.578;8.138;2024-02-14T01:27:02;8.65;;;4.60;;
20411;SDS011;10365;52.578;8.138;2024-02-14T01:29:28;8.05;;;4.28;;
20411;SDS011;10365;52.578;8.138;2024-02-14T01:31:53;12.00;;;5.28;;
20411;SDS011;10365;52.578;8.138;2024-02-14T01:34:19;12.02;;;4.72;;
20411;SDS011;10365;52.578;8.138;2024-02-14T01:36:45;11.13;;;4.95;;
20411;SDS011;10365;52.578;8.138;2024-02-14T01:39:11;8.00;;;5.60;;
20411;SDS011;10365;52.578;8.138;2024-02-14T01:41:37;11.13;;;6.63;;
20411;SDS011;10365;52.578;8.138;2024-02-14T01:44:02;9.63;;;5.80;;
20411;SDS011;10365;52.578;8.138;2024-02-14T01:46:28;9.00;;;5.60;;
20411;SDS011;10365;52.578;8.138;2024-02-14T01:48:53;10.60;;;6.00;;
20411;SDS011;10365;52.578;8.138;2024-02-14T01:51:19;13.13;;;6.13;;
20411;SDS011;10365;52.578;8.138;2024-02-14T01:53:45;9.13;;;5.93;;
20411;SDS011;10365;52.578;8.138;2024-02-14T01:56:11;15.48;;;6.85;;
20411;SDS011;10365;52.578;8.138;2024-02-14T01:58:37;10.98;;;6.57;;
20411;SDS011;10365;52.578;8.138;2024-02-14T02:01:04;11.10;;;5.95;;
20411;SDS011;10365;52.578;8.138;2024-02-14T02:03:29;10.45;;;6.35;;
20411;SDS011;10365;52.578;8.138;2024-02-14T02:05:55;11.52;;;7.15;;
20411;SDS011;10365;52.578;8.138;2024-02-14T02:08:21;15.60;;;6.68;;
20411;SDS011;10365;52.578;8.138;2024-02-14T02:10:46;12.40;;;7.13;;
20411;SDS011;10365;52.578;8.138;2024-02-14T02:13:12;13.10;;;6.95;;
20411;SDS011;10365;52.578;8.138;2024-02-14T02:15:37;12.82;;;7.07;;
20411;SDS011;10365;52.578;8.138;2024-02-14T02:18:03;11.32;;;7.88;;
20411;SDS011;10365;52.578;8.138;2024-02-14T02:20:31;14.57;;;7.38;;
20411;SDS011;10365;52.578;8.138;2024-02-14T02:22:58;14.32;;;7.22;;
20411;SDS011;10365;52.578;8.138;2024-02-14T02:25:23;15.23;;;8.23;;
20411;SDS011;10365;52.578;8.138;2024-02-14T02:27:51;12.15;;;7.88;;
20411;SDS011;10365;52.578;8.138;2024-02-14T02:30:17;13.63;;;7.72;;
20411;SDS011;10365;52.578;8.138;2024-02-14T02:32:42;16.80;;;8.18;;
20411;SDS011;10365;52.578;8.138;2024-02-14T02:35:08;12.52;;;7.40;;
20411;SDS011;10365;52.578;8.138;2024-02-14T02:37:35;13.20;;;8.68;;
20411;SDS011;10365;52.578;8.138;2024-02-14T02:40:00;15.25;;;8.90;;
20411;SDS011;10365;52.578;8.138;2024-02-14T02:42:25;15.27;;;8.52;;
20411;SDS011;10365;52.578;8.138;2024-02-14T02:44:51;12.88;;;8.77;;
20411;SDS011;10365;52.578;8.138;2024-02-14T02:47:16;13.57;;;9.23;;
20411;SDS011;10365;52.578;8.138;2024-02-14T02:49:45;13.63;;;8.95;;
20411;SDS011;10365;52.578;8.138;2024-02-14T02:52:11;14.73;;;9.73;;
20411;SDS011;10365;52.578;8.138;2024-02-14T02:54:37;14.07;;;8.70;;
20411;SDS011;10365;52.578;8.138;2024-02-14T02:57:02;15.18;;;10.00;;
20411;SDS011;10365;52.578;8.138;2024-02-14T02:59:30;14.52;;;9.48;;
20411;SDS011;10365;52.578;8.138;2024-02-14T03:02:00;13.20;;;9.55;;
20411;SDS011;10365;52.578;8.138;2024-02-14T03:04:25;20.55;;;10.20;;
20411;SDS011;10365;52.578;8.138;2024-02-14T03:06:51;14.93;;;10.00;;
20411;SDS011;10365;52.578;8.138;2024-02-14T03:09:16;18.33;;;10.48;;
20411;SDS011;10365;52.578;8.138;2024-02-14T03:11:46;15.05;;;10.35;;
20411;SDS011;10365;52.578;8.138;2024-02-14T03:14:11;14.95;;;10.05;;
20411;SDS011;10365;52.578;8.138;2024-02-14T03:16:36;16.40;;;9.52;;
20411;SDS011;10365;52.578;8.138;2024-02-14T03:19:02;14.50;;;9.95;;
20411;SDS011;10365;52.578;8.138;2024-02-14T03:21:28;16.25;;;10.07;;
20411;SDS011;10365;52.578;8.138;2024-02-14T03:23:54;14.82;;;9.35;;
20411;SDS011;10365;52.578;8.138;2024-02-14T03:26:20;14.35;;;9.60;;
20411;SDS011;10365;52.578;8.138;2024-02-14T03:28:45;14.38;;;9.85;;
20411;SDS011;10365;52.578;8.138;2024-02-14T03:31:10;12.70;;;9.25;;
20411;SDS011;10365;52.578;8.138;2024-02-14T03:33:39;13.23;;;9.27;;
20411;SDS011;10365;52.578;8.138;2024-02-14T03:36:05;13.40;;;9.75;;
20411;SDS011;10365;52.578;8.138;2024-02-14T03:38:30;13.15;;;9.45;;
20411;SDS011;10365;52.578;8.138;2024-02-14T03:40:56;14.77;;;10.63;;
20411;SDS011;10365;52.578;8.138;2024-02-14T03:43:21;14.07;;;10.50;;
20411;SDS011;10365;52.578;8.138;2024-02-14T03:45:49;13.82;;;10.05;;
20411;SDS011;10365;52.578;8.138;2024-02-14T03:48:14;14.77;;;9.40;;
20411;SDS011;10365;52.578;8.138;2024-02-14T03:50:39;14.85;;;9.55;;
20411;SDS011;10365;52.578;8.138;2024-02-14T03:53:05;16.52;;;10.52;;
20411;SDS011;10365;52.578;8.138;2024-02-14T03:55:30;13.75;;;9.55;;
20411;SDS011;10365;52.578;8.138;2024-02-14T03:57:56;15.27;;;10.65;;
20411;SDS011;10365;52.578;8.138;2024-02-14T04:00:21;19.42;;;9.95;;
20411;SDS011;10365;52.578;8.138;2024-02-14T04:02:47;15.13;;;10.65;;
20411;SDS011;10365;52.578;8.138;2024-02-14T04:05:14;16.23;;;10.65;;
20411;SDS011;10365;52.578;8.138;2024-02-14T04:07:39;14.15;;;10.27;;
20411;SDS011;10365;52.578;8.138;2024-02-14T04:10:05;14.52;;;10.90;;
20411;SDS011;10365;52.578;8.138;2024-02-14T04:12:30;16.85;;;10.77;;
20411;SDS011;10365;52.578;8.138;2024-02-14T04:14:56;15.15;;;10.57;;
20411;SDS011;10365;52.578;8.138;2024-02-14T04:17:21;16.58;;;10.75;;
20411;SDS011;10365;52.578;8.138;2024-02-14T04:19:46;16.95;;;11.00;;
20411;SDS011;10365;52.578;8.138;2024-02-14T04:22:12;16.30;;;11.30;;
20411;SDS011;10365;52.578;8.138;2024-02-14T04:24:37;16.65;;;11.15;;
20411;SDS011;10365;52.578;8.138;2024-02-14T04:27:03;16.95;;;11.70;;
20411;SDS011;10365;52.578;8.138;2024-02-14T04:29:29;13.88;;;10.90;;
20411;SDS011;10365;52.578;8.138;2024-02-14T04:32:02;19.10;;;11.90;;
20411;SDS011;10365;52.578;8.138;2024-02-14T04:34:27;16.38;;;10.90;;
20411;SDS011;10365;52.578;8.138;2024-02-14T04:36:53;19.77;;;12.27;;
20411;SDS011;10365;52.578;8.138;2024-02-14T04:39:18;18.00;;;11.70;;
20411;SDS011;10365;52.578;8.138;2024-02-14T04:41:44;16.95;;;11.93;;
20411;SDS011;10365;52.578;8.138;2024-02-14T04:44:09;19.58;;;11.85;;
20411;SDS011;10365;52.578;8.138;2024-02-14T04:46:36;17.92;;;12.90;;
20411;SDS011;10365;52.578;8.138;2024-02-14T04:49:03;15.02;;;11.27;;
20411;SDS011;10365;52.578;8.138;2024-02-14T04:51:29;18.35;;;12.32;;
20411;SDS011;10365;52.578;8.138;2024-02-14T04:53:54;18.85;;;12.93;;
20411;SDS011;10365;52.578;8.138;2024-02-14T04:56:23;17.50;;;12.23;;
20411;SDS011;10365;52.578;8.138;2024-02-14T04:58:49;17.27;;;12.43;;
20411;SDS011;10365;52.578;8.138;2024-02-14T05:01:14;20.25;;;13.50;;
20411;SDS011;10365;52.578;8.138;2024-02-14T05:03:40;17.35;;;12.85;;
20411;SDS011;10365;52.578;8.138;2024-02-14T05:06:05;20.98;;;13.55;;
20411;SDS011;10365;52.578;8.138;2024-02-14T05:08:32;22.15;;;13.80;;
20411;SDS011;10365;52.578;8.138;2024-02-14T05:10:57;19.63;;;13.00;;
20411;SDS011;10365;52.578;8.138;2024-02-14T05:13:23;17.48;;;12.88;;
20411;SDS011;10365;52.578;8.138;2024-02-14T05:15:48;20.60;;;13.43;;
20411;SDS011;10365;52.578;8.138;2024-02-14T05:18:14;19.08;;;13.45;;
20411;SDS011;10365;52.578;8.138;2024-02-14T05:20:41;19.10;;;13.48;;
20411;SDS011;10365;52.578;8.138;2024-02-14T05:23:07;21.15;;;13.98;;
20411;SDS011;10365;52.578;8.138;2024-02-14T05:25:32;18.48;;;12.57;;
20411;SDS011;10365;52.578;8.138;2024-02-14T05:27:58;18.85;;;13.65;;
20411;SDS011;10365;52.578;8.138;2024-02-14T05:30:24;18.25;;;13.50;;
20411;SDS011;10365;52.578;8.138;2024-02-14T05:32:50;21.95;;;13.27;;
20411;SDS011;10365;52.578;8.138;2024-02-14T05:35:17;18.02;;;12.50;;
20411;SDS011;10365;52.578;8.138;2024-02-14T05:37:43;17.17;;;12.25;;
20411;SDS011;10365;52.578;8.138;2024-02-14T05:40:08;17.83;;;12.88;;
20411;SDS011;10365;52.578;8.138;2024-02-14T05:42:34;19.00;;;12.63;;
20411;SDS011;10365;52.578;8.138;2024-02-14T05:44:59;18.20;;;12.25;;
20411;SDS011;10365;52.578;8.138;2024-02-14T05:47:25;19.13;;;12.77;;
20411;SDS011;10365;52.578;8.138;2024-02-14T05:49:51;17.58;;;11.80;;
20411;SDS011;10365;52.578;8.138;2024-02-14T05:52:16;17.35;;;11.43;;
20411;SDS011;10365;52.578;8.138;2024-02-14T05:54:43;19.33;;;11.93;;
20411;SDS011;10365;52.578;8.138;2024-02-14T05:57:09;15.38;;;10.95;;
20411;SDS011;10365;52.578;8.138;2024-02-14T05:59:34;16.17;;;11.38;;
20411;SDS011;10365;52.578;8.138;2024-02-14T06:02:00;17.33;;;11.80;;
20411;SDS011;10365;52.578;8.138;2024-02-14T06:04:28;17.45;;;10.45;;
20411;SDS011;10365;52.578;8.138;2024-02-14T06:06:53;15.90;;;11.73;;
20411;SDS011;10365;52.578;8.138;2024-02-14T06:09:18;17.42;;;11.32;;
20411;SDS011;10365;52.578;8.138;2024-02-14T06:11:44;16.40;;;10.15;;
20411;SDS011;10365;52.578;8.138;2024-02-14T06:14:10;15.00;;;10.30;;
20411;SDS011;10365;52.578;8.138;2024-02-14T06:16:35;14.10;;;10.18;;
20411;SDS011;10365;52.578;8.138;2024-02-14T06:19:00;15.63;;;10.38;;
20411;SDS011;10365;52.578;8.138;2024-02-14T06:21:26;15.05;;;9.75;;
20411;SDS011;10365;52.578;8.138;2024-02-14T06:23:52;14.90;;;9.45;;
20411;SDS011;10365;52.578;8.138;2024-02-14T06:26:17;15.13;;;10.32;;
20411;SDS011;10365;52.578;8.138;2024-02-14T06:28:43;14.50;;;10.15;;
20411;SDS011;10365;52.578;8.138;2024-02-14T06:31:09;13.23;;;9.43;;
20411;SDS011;10365;52.578;8.138;2024-02-14T06:33:35;12.45;;;9.80;;
20411;SDS011;10365;52.578;8.138;2024-02-14T06:36:00;14.50;;;9.45;;
20411;SDS011;10365;52.578;8.138;2024-02-14T06:38:25;13.95;;;9.23;;
20411;SDS011;10365;52.578;8.138;2024-02-14T06:40:51;12.02;;;8.57;;
20411;SDS011;10365;52.578;8.138;2024-02-14T06:43:16;14.25;;;8.80;;
20411;SDS011;10365;52.578;8.138;2024-02-14T06:45:41;17.20;;;9.38;;
20411;SDS011;10365;52.578;8.138;2024-02-14T06:48:07;12.43;;;8.68;;
20411;SDS011;10365;52.578;8.138;2024-02-14T06:50:33;12.07;;;7.97;;
20411;SDS011;10365;52.578;8.138;2024-02-14T06:52:58;10.85;;;7.60;;
20411;SDS011;10365;52.578;8.138;2024-02-14T06:55:25;9.50;;;6.85;;
20411;SDS011;10365;52.578;8.138;2024-02-14T06:57:51;9.80;;;6.72;;
20411;SDS011;10365;52.578;8.138;2024-02-14T07:00:16;9.73;;;7.07;;
20411;SDS011;10365;52.578;8.138;2024-02-14T07:02:42;9.70;;;6.57;;
20411;SDS011;10365;52.578;8.138;2024-02-14T07:05:08;11.13;;;6.93;;
20411;SDS011;10365;52.578;8.138;2024-02-14T07:07:37;8.57;;;6.15;;
20411;SDS011;10365;52.578;8.138;2024-02-14T07:10:03;9.13;;;6.60;;
20411;SDS011;10365;52.578;8.138;2024-02-14T07:12:31;11.30;;;6.45;;
20411;SDS011;10365;52.578;8.138;2024-02-14T07:14:56;10.63;;;5.90;;
20411;SDS011;10365;52.578;8.138;2024-02-14T07:17:22;10.32;;;6.82;;
20411;SDS011;10365;52.578;8.138;2024-02-14T07:19:48;10.10;;;7.47;;
20411;SDS011;10365;52.578;8.138;2024-02-14T07:22:15;9.60;;;6.90;;
20411;SDS011;10365;52.578;8.138;2024-02-14T07:24:41;9.98;;;6.95;;
20411;SDS011;10365;52.578;8.138;2024-02-14T07:27:06;12.50;;;8.38;;
20411;SDS011;10365;52.578;8.138;2024-02-14T07:29:32;13.73;;;8.73;;
20411;SDS011;10365;52.578;8.138;2024-02-14T07:31:58;15.00;;;8.80;;
20411;SDS011;10365;52.578;8.138;2024-02-14T07:34:24;12.60;;;8.70;;
20411;SDS011;10365;52.578;8.138;2024-02-14T07:36:49;13.45;;;8.48;;
20411;SDS011;10365;52.578;8.138;2024-02-14T07:39:14;16.92;;;10.32;;
20411;SDS011;10365;52.578;8.138;2024-02-14T07:41:40;15.68;;;9.95;;
20411;SDS011;10365;52.578;8.138;2024-02-14T07:44:05;15.73;;;9.93;;
20411;SDS011;10365;52.578;8.138;2024-02-14T07:46:30;15.65;;;9.85;;
20411;SDS011;10365;52.578;8.138;2024-02-14T07:48:56;14.63;;;10.35;;
20411;SDS011;10365;52.578;8.138;2024-02-14T07:51:22;19.63;;;10.65;;
20411;SDS011;10365;52.578;8.138;2024-02-14T07:53:48;18.38;;;10.27;;
20411;SDS011;10365;52.578;8.138;2024-02-14T07:56:15;20.33;;;11.73;;
20411;SDS011;10365;52.578;8.138;2024-02-14T07:58:43;18.67;;;10.52;;
20411;SDS011;10365;52.578;8.138;2024-02-14T08:01:09;16.48;;;10.50;;
20411;SDS011;10365;52.578;8.138;2024-02-14T08:03:34;18.80;;;11.38;;
20411;SDS011;10365;52.578;8.138;2024-02-14T08:05:59;23.10;;;11.68;;
20411;SDS011;10365;52.578;8.138;2024-02-14T08:08:25;22.25;;;11.98;;
20411;SDS011;10365;52.578;8.138;2024-02-14T08:10:52;22.08;;;11.60;;
20411;SDS011;10365;52.578;8.138;2024-02-14T08:13:18;19.48;;;11.40;;
20411;SDS011;10365;52.578;8.138;2024-02-14T08:15:43;18.02;;;11.82;;
20411;SDS011;10365;52.578;8.138;2024-02-14T08:18:08;22.90;;;12.15;;
20411;SDS011;10365;52.578;8.138;2024-02-14T08:20:34;17.38;;;10.55;;
20411;SDS011;10365;52.578;8.138;2024-02-14T08:22:59;18.67;;;11.27;;
20411;SDS011;10365;52.578;8.138;2024-02-14T08:25:25;21.20;;;11.25;;
20411;SDS011;10365;52.578;8.138;2024-02-14T08:27:54;17.98;;;11.15;;
20411;SDS011;10365;52.578;8.138;2024-02-14T08:30:19;19.30;;;11.10;;
20411;SDS011;10365;52.578;8.138;2024-02-14T08:32:44;21.83;;;12.82;;
20411;SDS011;10365;52.578;8.138;2024-02-14T08:35:10;23.30;;;11.10;;
20411;SDS011;10365;52.578;8.138;2024-02-14T08:37:37;22.92;;;12.65;;
20411;SDS011;10365;52.578;8.138;2024-02-14T08:40:03;21.13;;;11.95;;
20411;SDS011;10365;52.578;8.138;2024-02-14T08:42:31;22.23;;;12.30;;
20411;SDS011;10365;52.578;8.138;2024-02-14T08:44:56;19.20;;;11.70;;
20411;SDS011;10365;52.578;8.138;2024-02-14T08:47:22;22.38;;;12.23;;
20411;SDS011;10365;52.578;8.138;2024-02-14T08:49:47;21.65;;;12.18;;
20411;SDS011;10365;52.578;8.138;2024-02-14T08:52:13;22.10;;;12.85;;
20411;SDS011;10365;52.578;8.138;2024-02-14T08:54:38;23.45;;;13.02;;
20411;SDS011;10365;52.578;8.138;2024-02-14T08:57:04;19.65;;;12.40;;
20411;SDS011;10365;52.578;8.138;2024-02-14T08:59:30;19.83;;;12.30;;
20411;SDS011;10365;52.578;8.138;2024-02-14T09:01:56;22.45;;;12.60;;
20411;SDS011;10365;52.578;8.138;2024-02-14T09:04:21;19.63;;;12.07;;
20411;SDS011;10365;52.578;8.138;2024-02-14T09:06:47;22.73;;;13.18;;
20411;SDS011;10365;52.578;8.138;2024-02-14T09:09:12;23.48;;;13.10;;
20411;SDS011;10365;52.578;8.138;2024-02-14T09:11:39;21.02;;;12.38;;
20411;SDS011;10365;52.578;8.138;2024-02-14T09:14:06;21.08;;;12.40;;
20411;SDS011;10365;52.578;8.138;2024-02-14T09:16:34;23.05;;;13.32;;
20411;SDS011;10365;52.578;8.138;2024-02-14T09:18:59;21.33;;;12.93;;
20411;SDS011;10365;52.578;8.138;2024-02-14T09:21:26;23.77;;;13.20;;
20411;SDS011;10365;52.578;8.138;2024-02-14T09:23:53;18.88;;;12.20;;
20411;SDS011;10365;52.578;8.138;2024-02-14T09:26:18;18.17;;;11.35;;
20411;SDS011;10365;52.578;8.138;2024-02-14T09:28:43;21.88;;;11.75;;
20411;SDS011;10365;52.578;8.138;2024-02-14T09:31:09;19.48;;;11.90;;
20411;SDS011;10365;52.578;8.138;2024-02-14T09:33:36;18.17;;;11.48;;
20411;SDS011;10365;52.578;8.138;2024-02-14T09:36:02;16.30;;;11.70;;
20411;SDS011;10365;52.578;8.138;2024-02-14T09:38:28;25.45;;;12.82;;
20411;SDS011;10365;52.578;8.138;2024-02-14T09:40:54;15.98;;;10.73;;
20411;SDS011;10365;52.578;8.138;2024-02-14T09:43:43;20.40;;;11.70;;
20411;SDS011;10365;52.578;8.138;2024-02-14T09:46:08;19.02;;;12.57;;
20411;SDS011;10365;52.578;8.138;2024-02-14T09:48:34;17.73;;;10.68;;
20411;SDS011;10365;52.578;8.138;2024-02-14T09:51:00;14.73;;;9.75;;
20411;SDS011;10365;52.578;8.138;2024-02-14T09:53:26;14.30;;;9.63;;
20411;SDS011;10365;52.578;8.138;2024-02-14T09:55:53;13.55;;;10.13;;
20411;SDS011;10365;52.578;8.138;2024-02-14T09:58:19;11.38;;;8.15;;
20411;SDS011;10365;52.578;8.138;2024-02-14T10:00:45;14.52;;;8.45;;
20411;SDS011;10365;52.578;8.138;2024-02-14T10:03:10;14.57;;;7.70;;
20411;SDS011;10365;52.578;8.138;2024-02-14T10:05:36;10.25;;;7.30;;
20411;SDS011;10365;52.578;8.138;2024-02-14T10:08:01;14.93;;;6.95;;
20411;SDS011;10365;52.578;8.138;2024-02-14T10:10:26;9.90;;;7.20;;
20411;SDS011;10365;52.578;8.138;2024-02-14T10:12:56;9.43;;;6.72;;
20411;SDS011;10365;52.578;8.138;2024-02-14T10:15:23;9.07;;;6.55;;
20411;SDS011;10365;52.578;8.138;2024-02-14T10:17:48;10.13;;;7.30;;
20411;SDS011;10365;52.578;8.138;2024-02-14T10:20:16;9.77;;;6.78;;
20411;SDS011;10365;52.578;8.138;2024-02-14T10:22:42;8.25;;;5.80;;
20411;SDS011;10365;52.578;8.138;2024-02-14T10:25:07;8.90;;;5.85;;
20411;SDS011;10365;52.578;8.138;2024-02-14T10:27:37;10.35;;;6.10;;
20411;SDS011;10365;52.578;8.138;2024-02-14T10:30:04;11.00;;;7.32;;
20411;SDS011;10365;52.578;8.138;2024-02-14T10:32:30;10.88;;;6.90;;
20411;SDS011;10365;52.578;8.138;2024-02-14T10:34:55;9.82;;;6.28;;
20411;SDS011;10365;52.578;8.138;2024-02-14T10:37:24;11.00;;;6.60;;
20411;SDS011;10365;52.578;8.138;2024-02-14T10:39:50;10.90;;;7.07;;
20411;SDS011;10365;52.578;8.138;2024-02-14T10:42:18;11.35;;;7.00;;
20411;SDS011;10365;52.578;8.138;2024-02-14T10:44:44;11.93;;;6.93;;
20411;SDS011;10365;52.578;8.138;2024-02-14T10:47:10;10.18;;;6.05;;
20411;SDS011;10365;52.578;8.138;2024-02-14T10:49:36;9.38;;;6.30;;
20411;SDS011;10365;52.578;8.138;2024-02-14T10:52:03;10.25;;;7.28;;
20411;SDS011;10365;52.578;8.138;2024-02-14T10:54:32;10.82;;;6.93;;
20411;SDS011;10365;52.578;8.138;2024-02-14T10:57:00;10.82;;;6.72;;
20411;SDS011;10365;52.578;8.138;2024-02-14T10:59:27;9.93;;;6.93;;
20411;SDS011;10365;52.578;8.138;2024-02-14T11:01:53;10.82;;;6.88;;
20411;SDS011;10365;52.578;8.138;2024-02-14T11:04:19;9.93;;;6.97;;
20411;SDS011;10365;52.578;8.138;2024-02-14T11:06:45;10.77;;;7.55;;
20411;SDS011;10365;52.578;8.138;2024-02-14T11:09:11;11.70;;;7.60;;
20411;SDS011;10365;52.578;8.138;2024-02-14T11:11:38;12.20;;;8.10;;
20411;SDS011;10365;52.578;8.138;2024-02-14T11:14:03;12.63;;;7.88;;
20411;SDS011;10365;52.578;8.138;2024-02-14T11:16:30;11.45;;;7.63;;
20411;SDS011;10365;52.578;8.138;2024-02-14T11:19:08;11.60;;;7.65;;
20411;SDS011;10365;52.578;8.138;2024-02-14T11:21:44;10.38;;;7.85;;
20411;SDS011;10365;52.578;8.138;2024-02-14T11:24:11;10.73;;;7.25;;
20411;SDS011;10365;52.578;8.138;2024-02-14T11:26:38;9.35;;;7.40;;
20411;SDS011;10365;52.578;8.138;2024-02-14T11:29:04;9.95;;;7.57;;
20411;SDS011;10365;52.578;8.138;2024-02-14T11:31:32;9.98;;;7.47;;
20411;SDS011;10365;52.578;8.138;2024-02-14T11:34:02;13.32;;;7.90;;
20411;SDS011;10365;52.578;8.138;2024-02-14T11:36:28;10.63;;;7.00;;
20411;SDS011;10365;52.578;8.138;2024-02-14T11:38:54;14.80;;;7.53;;
20411;SDS011;10365;52.578;8.138;2024-02-14T11:41:20;10.75;;;7.32;;
20411;SDS011;10365;52.578;8.138;2024-02-14T11:43:51;10.25;;;7.45;;
20411;SDS011;10365;52.578;8.138;2024-02-14T11:46:18;12.18;;;6.97;;
20411;SDS011;10365;52.578;8.138;2024-02-14T11:48:44;11.90;;;7.72;;
20411;SDS011;10365;52.578;8.138;2024-02-14T11:51:12;10.13;;;7.50;;
20411;SDS011;10365;52.578;8.138;2024-02-14T11:53:38;11.82;;;7.65;;
20411;SDS011;10365;52.578;8.138;2024-02-14T11:56:04;12.05;;;7.35;;
20411;SDS011;10365;52.578;8.138;2024-02-14T11:58:30;11.52;;;7.20;;
20411;SDS011;10365;52.578;8.138;2024-02-14T12:00:56;9.65;;;6.93;;
20411;SDS011;10365;52.578;8.138;2024-02-14T12:03:22;9.60;;;6.55;;
20411;SDS011;10365;52.578;8.138;2024-02-14T12:05:49;10.55;;;7.18;;
20411;SDS011;10365;52.578;8.138;2024-02-14T12:08:16;9.70;;;6.18;;
20411;SDS011;10365;52.578;8.138;2024-02-14T12:10:44;7.82;;;5.50;;
20411;SDS011;10365;52.578;8.138;2024-02-14T12:13:15;12.02;;;6.50;;
20411;SDS011;10365;52.578;8.138;2024-02-14T12:15:43;8.57;;;6.18;;
20411;SDS011;10365;52.578;8.138;2024-02-14T12:18:09;8.38;;;6.32;;
20411;SDS011;10365;52.578;8.138;2024-02-14T12:20:35;9.35;;;6.70;;
20411;SDS011;10365;52.578;8.138;2024-02-14T12:23:02;9.43;;;6.97;;
20411;SDS011;10365;52.578;8.138;2024-02-14T12:25:29;7.95;;;5.95;;
20411;SDS011;10365;52.578;8.138;2024-02-14T12:27:56;8.93;;;6.60;;
20411;SDS011;10365;52.578;8.138;2024-02-14T12:30:22;9.05;;;6.45;;
20411;SDS011;10365;52.578;8.138;2024-02-14T12:32:57;8.15;;;6.43;;
20411;SDS011;10365;52.578;8.138;2024-02-14T12:35:23;15.63;;;8.93;;
20411;SDS011;10365;52.578;8.138;2024-02-14T12:37:51;8.88;;;7.00;;
20411;SDS011;10365;52.578;8.138;2024-02-14T12:40:16;8.68;;;6.38;;
20411;SDS011;10365;52.578;8.138;2024-02-14T12:42:45;7.13;;;5.60;;
20411;SDS011;10365;52.578;8.138;2024-02-14T12:45:10;7.60;;;5.28;;
20411;SDS011;10365;52.578;8.138;2024-02-14T12:47:36;6.68;;;5.47;;
20411;SDS011;10365;52.578;8.138;2024-02-14T12:50:02;8.13;;;5.28;;
20411;SDS011;10365;52.578;8.138;2024-02-14T12:52:27;6.43;;;4.32;;
20411;SDS011;10365;52.578;8.138;2024-02-14T12:54:53;6.50;;;4.80;;
20411;SDS011;10365;52.578;8.138;2024-02-14T12:57:18;6.40;;;4.95;;
20411;SDS011;10365;52.578;8.138;2024-02-14T12:59:46;5.32;;;4.00;;
20411;SDS011;10365;52.578;8.138;2024-02-14T13:02:11;8.13;;;4.50;;
20411;SDS011;10365;52.578;8.138;2024-02-14T13:04:37;5.88;;;4.28;;
20411;SDS011;10365;52.578;8.138;2024-02-14T13:07:02;5.78;;;4.38;;
20411;SDS011;10365;52.578;8.138;2024-02-14T13:09:28;5.25;;;3.65;;
20411;SDS011;10365;52.578;8.138;2024-02-14T13:11:53;6.97;;;4.25;;
20411;SDS011;10365;52.578;8.138;2024-02-14T13:14:19;6.57;;;4.30;;
20411;SDS011;10365;52.578;8.138;2024-02-14T13:16:45;6.88;;;4.47;;
20411;SDS011;10365;52.578;8.138;2024-02-14T13:19:10;6.20;;;4.90;;
20411;SDS011;10365;52.578;8.138;2024-02-14T13:21:35;8.80;;;5.07;;
20411;SDS011;10365;52.578;8.138;2024-02-14T13:24:01;7.97;;;5.20;;
20411;SDS011;10365;52.578;8.138;2024-02-14T13:26:26;8.38;;;5.38;;
20411;SDS011;10365;52.578;8.138;2024-02-14T13:28:53;9.05;;;6.13;;
20411;SDS011;10365;52.578;8.138;2024-02-14T13:31:19;8.73;;;6.47;;
20411;SDS011;10365;52.578;8.138;2024-02-14T13:33:44;11.85;;;6.78;;
20411;SDS011;10365;52.578;8.138;2024-02-14T13:36:10;12.90;;;7.88;;
20411;SDS011;10365;52.578;8.138;2024-02-14T13:38:35;11.20;;;7.88;;
20411;SDS011;10365;52.578;8.138;2024-02-14T13:41:02;9.70;;;7.47;;
20411;SDS011;10365;52.578;8.138;2024-02-14T13:43:27;19.25;;;10.40;;
20411;SDS011;10365;52.578;8.138;2024-02-14T13:45:52;14.38;;;9.20;;
20411;SDS011;10365;52.578;8.138;2024-02-14T13:48:19;12.70;;;8.45;;
20411;SDS011;10365;52.578;8.138;2024-02-14T13:50:44;12.57;;;8.25;;
20411;SDS011;10365;52.578;8.138;2024-02-14T13:53:09;13.65;;;7.55;;
20411;SDS011;10365;52.578;8.138;2024-02-14T13:55:35;11.00;;;7.82;;
20411;SDS011;10365;52.578;8.138;2024-02-14T13:58:01;11.10;;;7.47;;
20411;SDS011;10365;52.578;8.138;2024-02-14T14:00:26;9.90;;;6.55;;
20411;SDS011;10365;52.578;8.138;2024-02-14T14:02:52;11.02;;;8.15;;
20411;SDS011;10365;52.578;8.138;2024-02-14T14:05:17;13.18;;;8.63;;
20411;SDS011;10365;52.578;8.138;2024-02-14T14:07:46;10.52;;;6.70;;
20411;SDS011;10365;52.578;8.138;2024-02-14T14:10:11;14.52;;;8.32;;
20411;SDS011;10365;52.578;8.138;2024-02-14T14:12:37;22.23;;;12.20;;
20411;SDS011;10365;52.578;8.138;2024-02-14T14:15:04;12.02;;;8.15;;
20411;SDS011;10365;52.578;8.138;2024-02-14T14:17:29;19.63;;;9.90;;
20411;SDS011;10365;52.578;8.138;2024-02-14T14:19:54;24.33;;;11.70;;
20411;SDS011;10365;52.578;8.138;2024-02-14T14:22:20;27.23;;;13.85;;
20411;SDS011;10365;52.578;8.138;2024-02-14T14:24:46;16.05;;;10.82;;
20411;SDS011;10365;52.578;8.138;2024-02-14T14:27:11;13.93;;;10.10;;